Time,TemperatureF,DewpointF,PressureIn,WindDirection,WindDirectionDegrees,WindSpeedMPH,WindSpeedGustMPH,Humidity,HourlyPrecipIn,Conditions,Clouds,dailyrainin,SoftwareType,DateUTC
2013-02-28 00:02:00,43.7,40.6,29.72,North,0,4.0,4.0,89,0.00,,,0.00,meteohub,2013-02-28 05:02:00,
2013-02-28 00:08:00,44.4,40.8,29.71,North,0,2.0,4.0,87,0.00,,,0.00,meteohub,2013-02-28 05:08:00,
2013-02-28 00:11:00,44.6,40.5,29.71,North,0,2.0,4.0,85,0.00,,,0.00,meteohub,2013-02-28 05:11:00,
2013-02-28 00:17:00,44.2,39.7,29.71,NW,315,2.0,4.0,84,0.00,,,0.00,meteohub,2013-02-28 05:17:00,
2013-02-28 00:23:00,43.2,38.3,29.71,NE,45,1.0,4.0,83,0.00,,,0.00,meteohub,2013-02-28 05:23:00,
2013-02-28 00:29:00,42.3,37.4,29.70,East,90,2.0,3.0,83,0.00,,,0.00,meteohub,2013-02-28 05:29:00,
2013-02-28 00:35:00,41.2,36.7,29.71,East,90,2.0,2.0,84,0.00,,,0.00,meteohub,2013-02-28 05:35:00,
2013-02-28 00:41:00,40.5,36.3,29.71,East,90,0.0,2.0,85,0.00,,,0.00,meteohub,2013-02-28 05:41:00,
2013-02-28 00:47:00,40.1,36.3,29.71,East,90,2.0,2.0,86,0.00,,,0.00,meteohub,2013-02-28 05:47:00,
2013-02-28 00:52:00,39.7,36.0,29.72,East,90,0.0,2.0,86,0.00,,,0.00,meteohub,2013-02-28 05:52:00,
2013-02-28 00:57:00,39.7,36.1,29.72,East,90,1.0,2.0,87,0.00,,,0.00,meteohub,2013-02-28 05:57:00,
2013-02-28 01:02:00,39.9,36.3,29.72,East,90,1.0,2.0,87,0.00,,,0.00,meteohub,2013-02-28 06:02:00,
2013-02-28 01:08:00,40.6,37.4,29.72,NNE,23,2.0,2.0,88,0.00,,,0.00,meteohub,2013-02-28 06:08:00,
2013-02-28 01:14:00,41.7,38.7,29.72,NE,45,1.0,2.0,89,0.00,,,0.00,meteohub,2013-02-28 06:14:00,
2013-02-28 01:20:00,43.0,39.7,29.72,South,180,2.0,2.0,88,0.00,,,0.00,meteohub,2013-02-28 06:20:00,
2013-02-28 01:26:00,43.9,39.9,29.72,North,0,3.0,8.0,86,0.00,,,0.00,meteohub,2013-02-28 06:26:00,
2013-02-28 01:32:00,44.2,39.4,29.71,NW,315,7.0,8.0,83,0.00,,,0.00,meteohub,2013-02-28 06:32:00,
2013-02-28 01:37:00,44.8,39.4,29.71,North,0,2.0,7.0,81,0.00,,,0.00,meteohub,2013-02-28 06:37:00,
2013-02-28 01:42:00,44.6,39.2,29.71,East,90,2.0,7.0,81,0.00,,,0.00,meteohub,2013-02-28 06:42:00,
2013-02-28 01:47:00,44.6,38.5,29.71,West,270,3.0,7.0,79,0.00,,,0.00,meteohub,2013-02-28 06:47:00,
2013-02-28 01:52:00,44.6,38.1,29.71,SW,225,4.0,4.0,78,0.00,,,0.00,meteohub,2013-02-28 06:52:00,
2013-02-28 01:57:00,44.8,37.9,29.71,SW,225,4.0,4.0,77,0.00,,,0.00,meteohub,2013-02-28 06:57:00,
2013-02-28 02:02:00,45.1,38.7,29.71,West,270,3.0,4.0,78,0.00,,,0.00,meteohub,2013-02-28 07:02:00,
2013-02-28 02:07:00,45.3,38.5,29.71,NW,315,2.0,4.0,77,0.00,,,0.00,meteohub,2013-02-28 07:07:00,
2013-02-28 02:12:00,45.3,38.5,29.72,East,90,1.0,4.0,77,0.00,,,0.00,meteohub,2013-02-28 07:12:00,
2013-02-28 02:17:00,45.1,38.3,29.72,WSW,248,3.0,4.0,77,0.00,,,0.00,meteohub,2013-02-28 07:17:00,
2013-02-28 02:22:00,45.1,38.3,29.71,SE,135,2.0,3.0,77,0.00,,,0.00,meteohub,2013-02-28 07:22:00,
2013-02-28 02:27:00,45.0,38.1,29.70,SW,225,1.0,3.0,77,0.00,,,0.00,meteohub,2013-02-28 07:27:00,
2013-02-28 02:32:00,44.6,37.8,29.70,NW,315,2.0,3.0,77,0.00,,,0.00,meteohub,2013-02-28 07:32:00,
2013-02-28 02:37:00,44.6,37.8,29.71,NW,315,2.0,3.0,77,0.00,,,0.00,meteohub,2013-02-28 07:37:00,
2013-02-28 02:42:00,43.3,36.9,29.70,SE,135,1.0,3.0,78,0.00,,,0.00,meteohub,2013-02-28 07:42:00,
2013-02-28 02:47:00,42.6,36.5,29.71,WNW,293,1.0,2.0,79,0.00,,,0.00,meteohub,2013-02-28 07:47:00,
2013-02-28 02:52:00,41.7,35.8,29.70,WNW,293,1.0,2.0,79,0.00,,,0.00,meteohub,2013-02-28 07:52:00,
2013-02-28 02:57:00,41.0,35.2,29.70,WNW,293,2.0,2.0,80,0.00,,,0.00,meteohub,2013-02-28 07:57:00,
2013-02-28 03:02:00,40.3,34.9,29.70,WNW,293,2.0,2.0,81,0.00,,,0.00,meteohub,2013-02-28 08:02:00,
2013-02-28 03:07:00,40.3,34.9,29.70,WNW,293,2.0,2.0,81,0.00,,,0.00,meteohub,2013-02-28 08:07:00,
2013-02-28 03:12:00,38.5,33.8,29.70,East,90,2.0,2.0,83,0.00,,,0.00,meteohub,2013-02-28 08:12:00,
2013-02-28 03:18:00,37.8,33.4,29.70,East,90,2.0,2.0,84,0.00,,,0.00,meteohub,2013-02-28 08:18:00,
2013-02-28 03:24:00,37.0,32.9,29.70,SW,225,2.0,2.0,85,0.00,,,0.00,meteohub,2013-02-28 08:24:00,
2013-02-28 03:30:00,36.5,32.7,29.70,SW,225,2.0,2.0,86,0.00,,,0.00,meteohub,2013-02-28 08:30:00,
2013-02-28 03:36:00,36.0,32.2,29.70,SW,225,2.0,2.0,86,0.00,,,0.00,meteohub,2013-02-28 08:36:00,
2013-02-28 03:42:00,35.8,32.4,29.70,SW,225,1.0,2.0,87,0.00,,,0.00,meteohub,2013-02-28 08:42:00,
2013-02-28 03:47:00,35.4,32.0,29.70,SW,225,1.0,2.0,87,0.00,,,0.00,meteohub,2013-02-28 08:47:00,
2013-02-28 03:52:00,35.4,32.2,29.70,SW,225,2.0,2.0,88,0.00,,,0.00,meteohub,2013-02-28 08:52:00,
2013-02-28 03:57:00,35.1,31.8,29.71,SW,225,2.0,2.0,88,0.00,,,0.00,meteohub,2013-02-28 08:57:00,
2013-02-28 04:05:00,34.7,31.8,29.71,SW,225,2.0,2.0,89,0.00,,,0.00,meteohub,2013-02-28 09:05:00,
2013-02-28 04:11:00,34.5,31.6,29.71,SW,225,2.0,2.0,89,0.00,,,0.00,meteohub,2013-02-28 09:11:00,
2013-02-28 04:17:00,34.2,31.3,29.72,SW,225,2.0,2.0,89,0.00,,,0.00,meteohub,2013-02-28 09:17:00,
2013-02-28 04:22:00,34.0,31.3,29.72,SW,225,2.0,2.0,90,0.00,,,0.00,meteohub,2013-02-28 09:22:00,
2013-02-28 04:27:00,33.6,30.9,29.72,SW,225,2.0,2.0,90,0.00,,,0.00,meteohub,2013-02-28 09:27:00,
2013-02-28 04:32:00,33.6,30.9,29.72,SW,225,2.0,2.0,90,0.00,,,0.00,meteohub,2013-02-28 09:32:00,
2013-02-28 04:37:00,33.4,30.7,29.72,SW,225,2.0,2.0,90,0.00,,,0.00,meteohub,2013-02-28 09:37:00,
2013-02-28 04:42:00,33.1,30.4,29.72,SW,225,2.0,2.0,90,0.00,,,0.00,meteohub,2013-02-28 09:42:00,
2013-02-28 04:47:00,32.9,30.4,29.72,SW,225,1.0,2.0,90,0.00,,,0.00,meteohub,2013-02-28 09:47:00,
2013-02-28 04:53:00,32.7,30.2,29.72,SW,225,2.0,2.0,90,0.00,,,0.00,meteohub,2013-02-28 09:53:00,
2013-02-28 04:59:00,32.5,30.0,29.73,SW,225,1.0,2.0,90,0.00,,,0.00,meteohub,2013-02-28 09:59:00,
2013-02-28 05:05:00,32.4,30.0,29.73,SW,225,1.0,2.0,91,0.00,,,0.00,meteohub,2013-02-28 10:05:00,
2013-02-28 05:11:00,32.2,29.8,29.73,SW,225,2.0,2.0,91,0.00,,,0.00,meteohub,2013-02-28 10:11:00,
2013-02-28 05:17:00,32.2,29.8,29.73,SW,225,2.0,2.0,91,0.00,,,0.00,meteohub,2013-02-28 10:17:00,
2013-02-28 05:22:00,32.4,30.4,29.73,SW,225,2.0,2.0,92,0.00,,,0.00,meteohub,2013-02-28 10:22:00,
2013-02-28 05:27:00,32.4,30.4,29.73,SW,225,2.0,3.0,92,0.00,,,0.00,meteohub,2013-02-28 10:27:00,
2013-02-28 05:32:00,32.4,30.4,29.74,SW,225,2.0,3.0,92,0.00,,,0.00,meteohub,2013-02-28 10:32:00,
2013-02-28 05:37:00,32.4,30.4,29.73,SW,225,2.0,3.0,92,0.00,,,0.00,meteohub,2013-02-28 10:37:00,
2013-02-28 05:44:00,32.7,30.7,29.74,SW,225,2.0,2.0,92,0.00,,,0.00,meteohub,2013-02-28 10:44:00,
2013-02-28 05:50:00,33.1,31.3,29.74,NE,45,2.0,3.0,93,0.00,,,0.00,meteohub,2013-02-28 10:50:00,
2013-02-28 05:56:00,33.4,31.6,29.74,NE,45,2.0,3.0,93,0.00,,,0.00,meteohub,2013-02-28 10:56:00,
2013-02-28 06:02:00,33.6,31.8,29.74,NE,45,2.0,3.0,93,0.00,,,0.00,meteohub,2013-02-28 11:02:00,
2013-02-28 06:07:00,33.6,31.8,29.75,NE,45,2.0,2.0,93,0.00,,,0.00,meteohub,2013-02-28 11:07:00,
2013-02-28 06:12:00,33.6,31.8,29.75,NE,45,2.0,2.0,93,0.00,,,0.00,meteohub,2013-02-28 11:12:00,
2013-02-28 06:17:00,33.3,31.5,29.75,NE,45,1.0,2.0,93,0.00,,,0.00,meteohub,2013-02-28 11:17:00,
2013-02-28 06:22:00,33.1,31.3,29.75,NE,45,1.0,2.0,93,0.00,,,0.00,meteohub,2013-02-28 11:22:00,
2013-02-28 06:27:00,32.9,31.1,29.75,NE,45,1.0,2.0,93,0.00,,,0.00,meteohub,2013-02-28 11:27:00,
2013-02-28 06:33:00,32.7,30.9,29.75,NE,45,2.0,2.0,93,0.00,,,0.00,meteohub,2013-02-28 11:33:00,
2013-02-28 06:39:00,32.4,30.6,29.75,NE,45,2.0,2.0,93,0.00,,,0.00,meteohub,2013-02-28 11:39:00,
2013-02-28 06:45:00,31.8,30.0,29.76,NE,45,1.0,2.0,93,0.00,,,0.00,meteohub,2013-02-28 11:45:00,
2013-02-28 06:51:00,31.3,29.5,29.76,NE,45,1.0,2.0,93,0.00,,,0.00,meteohub,2013-02-28 11:51:00,
2013-02-28 06:57:00,30.9,29.1,29.77,NE,45,2.0,2.0,93,0.00,,,0.00,meteohub,2013-02-28 11:57:00,
2013-02-28 07:03:00,30.7,28.9,29.77,NE,45,2.0,2.0,93,0.00,,,0.00,meteohub,2013-02-28 12:03:00,
2013-02-28 07:09:00,30.6,28.8,29.77,NE,45,1.0,2.0,93,0.00,,,0.00,meteohub,2013-02-28 12:09:00,
2013-02-28 07:15:00,30.7,28.9,29.77,NE,45,1.0,2.0,93,0.00,,,0.00,meteohub,2013-02-28 12:15:00,
2013-02-28 07:21:00,30.9,29.1,29.77,NE,45,2.0,2.0,93,0.00,,,0.00,meteohub,2013-02-28 12:21:00,
2013-02-28 07:27:00,30.9,29.1,29.77,NE,45,1.0,2.0,93,0.00,,,0.00,meteohub,2013-02-28 12:27:00,
2013-02-28 07:32:00,31.1,29.3,29.77,NE,45,1.0,2.0,93,0.00,,,0.00,meteohub,2013-02-28 12:32:00,
2013-02-28 07:37:00,31.5,29.7,29.76,NE,45,1.0,2.0,93,0.00,,,0.00,meteohub,2013-02-28 12:37:00,
2013-02-28 07:42:00,31.3,29.5,29.76,NE,45,1.0,2.0,93,0.00,,,0.00,meteohub,2013-02-28 12:42:00,
2013-02-28 07:47:00,31.6,30.2,29.77,NE,45,1.0,2.0,94,0.00,,,0.00,meteohub,2013-02-28 12:47:00,
2013-02-28 07:52:00,32.2,30.6,29.77,NE,45,0.0,2.0,94,0.00,,,0.00,meteohub,2013-02-28 12:52:00,
2013-02-28 07:57:00,32.9,31.3,29.76,NE,45,1.0,2.0,94,0.00,,,0.00,meteohub,2013-02-28 12:57:00,
2013-02-28 08:02:00,33.4,31.8,29.77,NE,45,1.0,2.0,94,0.00,,,0.00,meteohub,2013-02-28 13:02:00,
2013-02-28 08:07:00,34.2,32.9,29.77,NE,45,1.0,1.0,95,0.00,,,0.00,meteohub,2013-02-28 13:07:00,
2013-02-28 08:12:00,35.1,33.8,29.77,NE,45,2.0,2.0,95,0.00,,,0.00,meteohub,2013-02-28 13:12:00,
2013-02-28 08:17:00,36.0,34.7,29.76,NE,45,1.0,2.0,95,0.00,,,0.00,meteohub,2013-02-28 13:17:00,
2013-02-28 08:22:00,36.5,35.2,29.77,NE,45,1.0,2.0,95,0.00,,,0.00,meteohub,2013-02-28 13:22:00,
2013-02-28 08:27:00,37.2,36.0,29.77,NE,45,0.0,2.0,95,0.00,,,0.00,meteohub,2013-02-28 13:27:00,
2013-02-28 08:32:00,37.8,36.5,29.77,NE,45,1.0,2.0,95,0.00,,,0.00,meteohub,2013-02-28 13:32:00,
2013-02-28 08:37:00,38.5,37.2,29.78,NE,45,1.0,1.0,95,0.00,,,0.00,meteohub,2013-02-28 13:37:00,
2013-02-28 08:42:00,39.0,37.4,29.77,SE,135,2.0,2.0,94,0.00,,,0.00,meteohub,2013-02-28 13:42:00,
2013-02-28 08:47:00,39.6,37.9,29.78,East,90,1.0,2.0,94,0.00,,,0.00,meteohub,2013-02-28 13:47:00,
2013-02-28 08:52:00,40.1,38.3,29.77,SE,135,2.0,2.0,93,0.00,,,0.00,meteohub,2013-02-28 13:52:00,
2013-02-28 08:57:00,40.6,38.5,29.77,North,-999,-999.0,2.0,92,0.00,,,0.00,meteohub,2013-02-28 13:57:00,
2013-02-28 09:02:00,41.2,38.5,29.77,North,-999,-999.0,2.0,90,0.00,,,0.00,meteohub,2013-02-28 14:02:00,
2013-02-28 09:07:00,41.4,37.6,29.77,SW,225,3.0,-999.0,86,0.00,,,0.00,meteohub,2013-02-28 14:07:00,
2013-02-28 09:12:00,41.7,37.6,29.77,NW,315,3.0,3.0,85,0.00,,,0.00,meteohub,2013-02-28 14:12:00,
2013-02-28 09:17:00,42.3,38.1,29.77,NW,315,1.0,3.0,85,0.00,,,0.00,meteohub,2013-02-28 14:17:00,
2013-02-28 09:22:00,42.4,37.6,29.77,NW,315,2.0,3.0,83,0.00,,,0.00,meteohub,2013-02-28 14:22:00,
2013-02-28 09:27:00,42.4,37.4,29.77,NW,315,1.0,4.0,82,0.00,,,0.00,meteohub,2013-02-28 14:27:00,
2013-02-28 09:32:00,42.8,36.7,29.76,South,180,2.0,4.0,79,0.00,,,0.00,meteohub,2013-02-28 14:32:00,
2013-02-28 09:37:00,43.0,36.7,29.76,North,0,2.0,4.0,78,0.00,,,0.00,meteohub,2013-02-28 14:37:00,
2013-02-28 09:42:00,43.3,35.6,29.77,SW,225,2.0,4.0,74,0.00,,,0.00,meteohub,2013-02-28 14:42:00,
2013-02-28 09:47:00,43.7,36.0,29.77,West,270,2.0,4.0,74,0.00,,,0.00,meteohub,2013-02-28 14:47:00,
2013-02-28 09:52:00,44.1,36.7,29.77,West,270,2.0,4.0,75,0.00,,,0.00,meteohub,2013-02-28 14:52:00,
2013-02-28 09:57:00,44.4,36.7,29.77,North,0,3.0,3.0,74,0.00,,,0.00,meteohub,2013-02-28 14:57:00,
2013-02-28 10:02:00,44.6,35.8,29.77,North,0,4.0,4.0,71,0.00,,,0.00,meteohub,2013-02-28 15:02:00,
2013-02-28 10:07:00,44.8,35.6,29.77,NE,45,2.0,4.0,70,0.00,,,0.00,meteohub,2013-02-28 15:07:00,
2013-02-28 10:12:00,45.1,34.5,29.77,West,270,3.0,5.0,66,0.00,,,0.00,meteohub,2013-02-28 15:12:00,
2013-02-28 10:17:00,45.5,33.3,29.76,South,180,5.0,5.0,62,0.00,,,0.00,meteohub,2013-02-28 15:17:00,
2013-02-28 10:22:00,45.5,33.6,29.76,West,270,2.0,5.0,63,0.00,,,0.00,meteohub,2013-02-28 15:22:00,
2013-02-28 10:27:00,46.0,34.5,29.76,NE,45,5.0,8.0,64,0.00,,,0.00,meteohub,2013-02-28 15:27:00,
2013-02-28 10:32:00,46.4,33.3,29.76,NE,45,2.0,8.0,60,0.00,,,0.00,meteohub,2013-02-28 15:32:00,
2013-02-28 10:37:00,46.6,32.5,29.77,West,270,6.0,6.0,58,0.00,,,0.00,meteohub,2013-02-28 15:37:00,
2013-02-28 10:42:00,46.6,33.1,29.76,North,0,6.0,8.0,59,0.00,,,0.00,meteohub,2013-02-28 15:42:00,
2013-02-28 10:47:00,46.6,32.5,29.77,NE,45,3.0,8.0,58,0.00,,,0.00,meteohub,2013-02-28 15:47:00,
2013-02-28 10:52:00,46.6,31.6,29.76,NE,45,4.0,8.0,56,0.00,,,0.00,meteohub,2013-02-28 15:52:00,
2013-02-28 10:57:00,46.6,31.6,29.76,NW,315,7.0,7.0,56,0.00,,,0.00,meteohub,2013-02-28 15:57:00,
2013-02-28 11:02:00,46.4,31.1,29.76,West,270,4.0,7.0,55,0.00,,,0.00,meteohub,2013-02-28 16:02:00,
2013-02-28 11:07:00,46.4,30.7,29.76,East,90,4.0,9.0,54,0.00,,,0.00,meteohub,2013-02-28 16:07:00,
2013-02-28 11:12:00,46.4,29.7,29.77,NW,315,5.0,9.0,52,0.00,,,0.00,meteohub,2013-02-28 16:12:00,
2013-02-28 11:17:00,46.4,29.3,29.76,NW,315,8.0,9.0,51,0.00,,,0.00,meteohub,2013-02-28 16:17:00,
2013-02-28 11:22:00,46.6,29.5,29.76,North,0,4.0,12.0,51,0.00,,,0.00,meteohub,2013-02-28 16:22:00,
2013-02-28 11:29:00,47.1,29.5,29.76,NW,315,6.0,12.0,50,0.00,,,0.00,meteohub,2013-02-28 16:29:00,
2013-02-28 11:35:00,48.6,29.3,29.76,ESE,113,4.0,12.0,47,0.00,,,0.00,meteohub,2013-02-28 16:35:00,
2013-02-28 11:41:00,49.8,29.3,29.75,SE,135,4.0,8.0,45,0.00,,,0.00,meteohub,2013-02-28 16:41:00,
2013-02-28 11:47:00,50.5,29.5,29.75,NW,315,8.0,8.0,44,0.00,,,0.00,meteohub,2013-02-28 16:47:00,
2013-02-28 11:52:00,49.8,27.1,29.75,WSW,248,6.0,9.0,41,0.00,,,0.00,meteohub,2013-02-28 16:52:00,
2013-02-28 11:57:00,49.3,27.1,29.75,NE,45,3.0,9.0,42,0.00,,,0.00,meteohub,2013-02-28 16:57:00,
2013-02-28 12:02:00,49.1,27.0,29.75,SE,135,4.0,9.0,42,0.00,,,0.00,meteohub,2013-02-28 17:02:00,
2013-02-28 12:07:00,48.7,27.9,29.75,North,0,6.0,10.0,44,0.00,,,0.00,meteohub,2013-02-28 17:07:00,
2013-02-28 12:12:00,48.6,26.4,29.75,NW,315,5.0,10.0,42,0.00,,,0.00,meteohub,2013-02-28 17:12:00,
2013-02-28 12:17:00,48.4,26.4,29.75,North,0,7.0,8.0,42,0.00,,,0.00,meteohub,2013-02-28 17:17:00,
2013-02-28 12:22:00,48.4,27.5,29.75,SW,225,7.0,10.0,44,0.00,,,0.00,meteohub,2013-02-28 17:22:00,
2013-02-28 12:27:00,48.0,26.6,29.75,SW,225,4.0,10.0,43,0.00,,,0.00,meteohub,2013-02-28 17:27:00,
2013-02-28 12:32:00,48.0,27.1,29.74,NW,315,7.0,10.0,44,0.00,,,0.00,meteohub,2013-02-28 17:32:00,
2013-02-28 12:37:00,49.1,28.0,29.74,WSW,248,4.0,10.0,44,0.00,,,0.00,meteohub,2013-02-28 17:37:00,
2013-02-28 12:42:00,50.4,27.5,29.74,East,90,8.0,8.0,41,0.00,,,0.00,meteohub,2013-02-28 17:42:00,
2013-02-28 12:47:00,50.0,27.1,29.73,North,0,8.0,10.0,41,0.00,,,0.00,meteohub,2013-02-28 17:47:00,
2013-02-28 12:52:00,48.0,26.6,29.75,NE,45,8.0,15.0,43,0.00,,,0.00,meteohub,2013-02-28 17:52:00,
2013-02-28 12:57:00,47.3,25.9,29.75,North,0,4.0,15.0,43,0.00,,,0.00,meteohub,2013-02-28 17:57:00,
2013-02-28 13:03:00,46.8,26.1,29.75,North,0,3.0,15.0,44,0.00,,,0.00,meteohub,2013-02-28 18:03:00,
2013-02-28 13:09:00,46.2,26.1,29.75,NNW,338,6.0,9.0,45,0.00,,,0.00,meteohub,2013-02-28 18:09:00,
2013-02-28 13:15:00,45.9,26.2,29.75,NW,315,4.0,9.0,46,0.00,,,0.00,meteohub,2013-02-28 18:15:00,
2013-02-28 13:21:00,45.9,26.8,29.75,NE,45,5.0,10.0,47,0.00,,,0.00,meteohub,2013-02-28 18:21:00,
2013-02-28 13:27:00,46.2,26.6,29.75,East,90,5.0,10.0,46,0.00,,,0.00,meteohub,2013-02-28 18:27:00,
2013-02-28 13:32:00,46.6,27.0,29.75,East,90,6.0,8.0,46,0.00,,,0.00,meteohub,2013-02-28 18:32:00,
2013-02-28 13:37:00,47.1,26.8,29.75,North,0,2.0,8.0,45,0.00,,,0.00,meteohub,2013-02-28 18:37:00,
2013-02-28 13:42:00,47.3,25.9,29.74,NNE,23,8.0,8.0,43,0.00,,,0.00,meteohub,2013-02-28 18:42:00,
2013-02-28 13:47:00,47.3,25.3,29.74,NW,315,9.0,11.0,42,0.00,,,0.00,meteohub,2013-02-28 18:47:00,
2013-02-28 13:52:00,47.3,25.3,29.74,SW,225,8.0,11.0,42,0.00,,,0.00,meteohub,2013-02-28 18:52:00,
2013-02-28 13:57:00,48.4,26.4,29.74,NW,315,5.0,11.0,42,0.00,,,0.00,meteohub,2013-02-28 18:57:00,
2013-02-28 14:02:00,49.1,27.0,29.74,South,180,3.0,11.0,42,0.00,,,0.00,meteohub,2013-02-28 19:02:00,
2013-02-28 14:07:00,48.9,26.2,29.73,WSW,248,4.0,10.0,41,0.00,,,0.00,meteohub,2013-02-28 19:07:00,
2013-02-28 14:12:00,48.6,26.4,29.73,SW,225,4.0,10.0,42,0.00,,,0.00,meteohub,2013-02-28 19:12:00,
2013-02-28 14:17:00,49.1,27.0,29.73,East,90,4.0,10.0,42,0.00,,,0.00,meteohub,2013-02-28 19:17:00,
2013-02-28 14:22:00,49.5,26.8,29.73,North,0,4.0,10.0,41,0.00,,,0.00,meteohub,2013-02-28 19:22:00,
2013-02-28 14:27:00,49.6,27.0,29.73,SE,135,4.0,8.0,41,0.00,,,0.00,meteohub,2013-02-28 19:27:00,
2013-02-28 14:32:00,49.8,25.9,29.73,West,270,8.0,8.0,39,0.00,,,0.00,meteohub,2013-02-28 19:32:00,
2013-02-28 14:37:00,50.4,26.4,29.73,North,0,10.0,10.0,39,0.00,,,0.00,meteohub,2013-02-28 19:37:00,
2013-02-28 14:42:00,51.3,25.9,29.73,North,0,14.0,14.0,37,0.00,,,0.00,meteohub,2013-02-28 19:42:00,
2013-02-28 14:47:00,50.9,25.5,29.73,North,0,2.0,14.0,37,0.00,,,0.00,meteohub,2013-02-28 19:47:00,
2013-02-28 14:52:00,51.4,26.1,29.73,North,0,4.0,14.0,37,0.00,,,0.00,meteohub,2013-02-28 19:52:00,
2013-02-28 14:57:00,50.5,23.2,29.73,NW,315,9.0,14.0,34,0.00,,,0.00,meteohub,2013-02-28 19:57:00,
2013-02-28 15:02:00,49.6,23.7,29.73,SW,225,7.0,13.0,36,0.00,,,0.00,meteohub,2013-02-28 20:02:00,
2013-02-28 15:07:00,49.1,23.9,29.74,South,180,7.0,13.0,37,0.00,,,0.00,meteohub,2013-02-28 20:07:00,
2013-02-28 15:12:00,49.6,24.4,29.73,NW,315,8.0,13.0,37,0.00,,,0.00,meteohub,2013-02-28 20:12:00,
2013-02-28 15:17:00,50.0,23.4,29.74,SE,135,8.0,11.0,35,0.00,,,0.00,meteohub,2013-02-28 20:17:00,
2013-02-28 15:22:00,49.1,23.4,29.74,West,270,6.0,10.0,36,0.00,,,0.00,meteohub,2013-02-28 20:22:00,
2013-02-28 15:27:00,48.7,23.5,29.75,North,0,4.0,11.0,37,0.00,,,0.00,meteohub,2013-02-28 20:27:00,
2013-02-28 15:32:00,48.4,23.9,29.75,North,0,4.0,11.0,38,0.00,,,0.00,meteohub,2013-02-28 20:32:00,
2013-02-28 15:37:00,48.0,23.5,29.75,SE,135,5.0,11.0,38,0.00,,,0.00,meteohub,2013-02-28 20:37:00,
2013-02-28 15:42:00,47.7,23.9,29.75,SW,225,7.0,8.0,39,0.00,,,0.00,meteohub,2013-02-28 20:42:00,
2013-02-28 15:47:00,47.5,24.4,29.75,South,180,9.0,12.0,40,0.00,,,0.00,meteohub,2013-02-28 20:47:00,
2013-02-28 15:52:00,47.3,23.5,29.75,SE,135,4.0,12.0,39,0.00,,,0.00,meteohub,2013-02-28 20:52:00,
2013-02-28 15:57:00,47.1,24.6,29.75,West,270,3.0,12.0,41,0.00,,,0.00,meteohub,2013-02-28 20:57:00,
2013-02-28 16:02:00,47.1,24.6,29.75,NW,315,9.0,11.0,41,0.00,,,0.00,meteohub,2013-02-28 21:02:00,
2013-02-28 16:07:00,46.9,25.0,29.75,SW,225,3.0,11.0,42,0.00,,,0.00,meteohub,2013-02-28 21:07:00,
2013-02-28 16:12:00,46.9,25.0,29.75,East,90,2.0,9.0,42,0.00,,,0.00,meteohub,2013-02-28 21:12:00,
2013-02-28 16:17:00,46.9,25.0,29.75,West,270,3.0,9.0,42,0.00,,,0.00,meteohub,2013-02-28 21:17:00,
2013-02-28 16:22:00,46.8,24.8,29.75,SW,225,8.0,8.0,42,0.00,,,0.00,meteohub,2013-02-28 21:22:00,
2013-02-28 16:27:00,46.9,25.0,29.75,NW,315,3.0,8.0,42,0.00,,,0.00,meteohub,2013-02-28 21:27:00,
2013-02-28 16:32:00,46.9,25.0,29.75,SW,225,3.0,11.0,42,0.00,,,0.00,meteohub,2013-02-28 21:32:00,
2013-02-28 16:37:00,46.9,25.0,29.75,NNW,338,5.0,11.0,42,0.00,,,0.00,meteohub,2013-02-28 21:37:00,
2013-02-28 16:42:00,46.9,25.0,29.75,NE,45,2.0,11.0,42,0.00,,,0.00,meteohub,2013-02-28 21:42:00,
2013-02-28 16:47:00,46.8,24.8,29.76,NW,315,2.0,7.0,42,0.00,,,0.00,meteohub,2013-02-28 21:47:00,
2013-02-28 16:52:00,46.6,25.3,29.76,NW,315,3.0,6.0,43,0.00,,,0.00,meteohub,2013-02-28 21:52:00,
2013-02-28 16:57:00,46.4,24.6,29.75,NW,315,5.0,8.0,42,0.00,,,0.00,meteohub,2013-02-28 21:57:00,
2013-02-28 17:02:00,46.4,24.6,29.76,South,180,4.0,8.0,42,0.00,,,0.00,meteohub,2013-02-28 22:02:00,
2013-02-28 17:07:00,46.4,24.6,29.76,SW,225,8.0,8.0,42,0.00,,,0.00,meteohub,2013-02-28 22:07:00,
2013-02-28 17:12:00,46.6,23.5,29.76,SE,135,9.0,9.0,40,0.00,,,0.00,meteohub,2013-02-28 22:12:00,
2013-02-28 17:17:00,46.4,22.8,29.76,NW,315,10.0,12.0,39,0.00,,,0.00,meteohub,2013-02-28 22:17:00,
2013-02-28 17:22:00,46.2,23.2,29.77,West,270,5.0,12.0,40,0.00,,,0.00,meteohub,2013-02-28 22:22:00,
2013-02-28 17:27:00,46.0,23.0,29.77,NW,315,3.0,12.0,40,0.00,,,0.00,meteohub,2013-02-28 22:27:00,
2013-02-28 17:32:00,45.9,23.5,29.77,NW,315,4.0,10.0,41,0.00,,,0.00,meteohub,2013-02-28 22:32:00,
2013-02-28 17:37:00,45.7,22.8,29.77,NW,315,6.0,6.0,40,0.00,,,0.00,meteohub,2013-02-28 22:37:00,
2013-02-28 17:42:00,45.7,23.4,29.76,West,270,5.0,10.0,41,0.00,,,0.00,meteohub,2013-02-28 22:42:00,
2013-02-28 17:47:00,45.5,23.2,29.77,West,270,2.0,10.0,41,0.00,,,0.00,meteohub,2013-02-28 22:47:00,
2013-02-28 17:52:00,45.3,23.5,29.77,NNW,338,5.0,10.0,42,0.00,,,0.00,meteohub,2013-02-28 22:52:00,
2013-02-28 17:57:00,45.1,23.4,29.77,SW,225,3.0,7.0,42,0.00,,,0.00,meteohub,2013-02-28 22:57:00,
2013-02-28 18:02:00,45.1,23.4,29.78,SW,225,7.0,7.0,42,0.00,,,0.00,meteohub,2013-02-28 23:02:00,
2013-02-28 18:07:00,45.0,23.2,29.78,NW,315,4.0,7.0,42,0.00,,,0.00,meteohub,2013-02-28 23:07:00,
2013-02-28 18:12:00,44.8,23.7,29.78,SW,225,2.0,7.0,43,0.00,,,0.00,meteohub,2013-02-28 23:12:00,
2013-02-28 18:17:00,44.4,23.9,29.78,SE,135,1.0,7.0,44,0.00,,,0.00,meteohub,2013-02-28 23:17:00,
2013-02-28 18:22:00,44.1,23.5,29.78,NW,315,2.0,5.0,44,0.00,,,0.00,meteohub,2013-02-28 23:22:00,
2013-02-28 18:27:00,43.9,23.9,29.79,North,0,2.0,3.0,45,0.00,,,0.00,meteohub,2013-02-28 23:27:00,
2013-02-28 18:32:00,43.2,24.3,29.79,North,0,1.0,3.0,47,0.00,,,0.00,meteohub,2013-02-28 23:32:00,
2013-02-28 18:37:00,42.1,25.7,29.80,North,0,1.0,3.0,52,0.00,,,0.00,meteohub,2013-02-28 23:37:00,
2013-02-28 18:42:00,40.8,25.9,29.79,North,0,2.0,2.0,55,0.00,,,0.00,meteohub,2013-02-28 23:42:00,
2013-02-28 18:47:00,39.6,25.5,29.80,North,0,2.0,2.0,57,0.00,,,0.00,meteohub,2013-02-28 23:47:00,
2013-02-28 18:52:00,38.3,25.2,29.80,North,0,1.0,2.0,59,0.00,,,0.00,meteohub,2013-02-28 23:52:00,
2013-02-28 18:57:00,37.6,25.7,29.81,North,0,2.0,2.0,62,0.00,,,0.00,meteohub,2013-02-28 23:57:00,
2013-02-28 19:02:00,37.2,25.7,29.81,West,270,2.0,2.0,63,0.00,,,0.00,meteohub,2013-03-01 00:02:00,
2013-02-28 19:08:00,37.6,25.7,29.81,East,90,2.0,2.0,62,0.00,,,0.00,meteohub,2013-03-01 00:08:00,
2013-02-28 19:14:00,39.4,26.6,29.82,NW,315,3.0,6.0,60,0.00,,,0.00,meteohub,2013-03-01 00:14:00,
2013-02-28 19:20:00,40.6,26.2,29.81,East,90,3.0,7.0,56,0.00,,,0.00,meteohub,2013-03-01 00:20:00,
2013-02-28 19:26:00,41.5,26.6,29.81,NE,45,1.0,7.0,55,0.00,,,0.00,meteohub,2013-03-01 00:26:00,
2013-02-28 19:32:00,41.7,25.9,29.82,NE,45,3.0,5.0,53,0.00,,,0.00,meteohub,2013-03-01 00:32:00,
2013-02-28 19:37:00,42.1,25.7,29.82,NW,315,2.0,4.0,52,0.00,,,0.00,meteohub,2013-03-01 00:37:00,
2013-02-28 19:42:00,42.1,25.7,29.82,North,0,2.0,4.0,52,0.00,,,0.00,meteohub,2013-03-01 00:42:00,
2013-02-28 19:47:00,41.9,25.5,29.82,East,90,2.0,4.0,52,0.00,,,0.00,meteohub,2013-03-01 00:47:00,
2013-02-28 19:52:00,41.7,25.3,29.82,North,0,2.0,4.0,52,0.00,,,0.00,meteohub,2013-03-01 00:52:00,
2013-02-28 19:57:00,41.7,25.3,29.82,North,0,4.0,4.0,52,0.00,,,0.00,meteohub,2013-03-01 00:57:00,
2013-02-28 20:02:00,41.7,25.3,29.82,NE,45,3.0,4.0,52,0.00,,,0.00,meteohub,2013-03-01 01:02:00,
2013-02-28 20:07:00,41.9,25.2,29.82,West,270,2.0,4.0,51,0.00,,,0.00,meteohub,2013-03-01 01:07:00,
2013-02-28 20:12:00,41.9,25.2,29.82,East,90,4.0,4.0,51,0.00,,,0.00,meteohub,2013-03-01 01:12:00,
2013-02-28 20:17:00,41.9,25.2,29.83,North,0,2.0,4.0,51,0.00,,,0.00,meteohub,2013-03-01 01:17:00,
2013-02-28 20:22:00,41.7,25.0,29.83,North,0,3.0,4.0,51,0.00,,,0.00,meteohub,2013-03-01 01:22:00,
2013-02-28 20:27:00,41.7,25.0,29.83,East,90,2.0,4.0,51,0.00,,,0.00,meteohub,2013-03-01 01:27:00,
2013-02-28 20:32:00,41.5,25.2,29.83,South,180,2.0,4.0,52,0.00,,,0.00,meteohub,2013-03-01 01:32:00,
2013-02-28 20:37:00,41.2,24.8,29.83,North,0,3.0,4.0,52,0.00,,,0.00,meteohub,2013-03-01 01:37:00,
2013-02-28 20:42:00,41.0,24.8,29.83,North,0,2.0,5.0,52,0.00,,,0.00,meteohub,2013-03-01 01:42:00,
2013-02-28 20:47:00,41.0,25.2,29.83,NE,45,2.0,8.0,53,0.00,,,0.00,meteohub,2013-03-01 01:47:00,
2013-02-28 20:52:00,41.0,25.2,29.83,West,270,5.0,8.0,53,0.00,,,0.00,meteohub,2013-03-01 01:52:00,
2013-02-28 20:57:00,40.6,24.8,29.83,NE,45,2.0,8.0,53,0.00,,,0.00,meteohub,2013-03-01 01:57:00,
2013-02-28 21:03:00,40.5,25.2,29.83,NW,315,3.0,5.0,54,0.00,,,0.00,meteohub,2013-03-01 02:03:00,
2013-02-28 21:09:00,39.9,24.6,29.84,North,0,1.0,5.0,54,0.00,,,0.00,meteohub,2013-03-01 02:09:00,
2013-02-28 21:15:00,39.6,24.8,29.84,North,0,2.0,3.0,55,0.00,,,0.00,meteohub,2013-03-01 02:15:00,
2013-02-28 21:21:00,39.6,25.2,29.84,NW,315,6.0,6.0,56,0.00,,,0.00,meteohub,2013-03-01 02:21:00,
2013-02-28 21:27:00,39.4,25.0,29.85,North,0,1.0,7.0,56,0.00,,,0.00,meteohub,2013-03-01 02:27:00,
2013-02-28 21:32:00,39.2,24.8,29.85,NW,315,1.0,7.0,56,0.00,,,0.00,meteohub,2013-03-01 02:32:00,
2013-02-28 21:37:00,39.2,24.8,29.85,NW,315,2.0,7.0,56,0.00,,,0.00,meteohub,2013-03-01 02:37:00,
2013-02-28 21:42:00,38.5,25.0,29.85,NE,45,1.0,3.0,58,0.00,,,0.00,meteohub,2013-03-01 02:42:00,
2013-02-28 21:47:00,37.8,24.8,29.86,NE,45,2.0,2.0,59,0.00,,,0.00,meteohub,2013-03-01 02:47:00,
2013-02-28 21:52:00,37.0,24.8,29.86,North,0,3.0,3.0,61,0.00,,,0.00,meteohub,2013-03-01 02:52:00,
2013-02-28 21:58:00,36.3,24.6,29.86,NW,315,1.0,4.0,62,0.00,,,0.00,meteohub,2013-03-01 02:58:00,
2013-02-28 22:04:00,36.1,24.4,29.86,NW,315,0.0,4.0,62,0.00,,,0.00,meteohub,2013-03-01 03:04:00,
2013-02-28 22:10:00,35.2,24.6,29.86,NE,45,2.0,2.0,65,0.00,,,0.00,meteohub,2013-03-01 03:10:00,
2013-02-28 22:16:00,34.5,24.6,29.87,SW,225,1.0,2.0,67,0.00,,,0.00,meteohub,2013-03-01 03:16:00,
2013-02-28 22:22:00,34.2,24.4,29.86,SW,225,1.0,2.0,67,0.00,,,0.00,meteohub,2013-03-01 03:22:00,
2013-02-28 22:27:00,34.2,24.4,29.86,NW,315,1.0,2.0,67,0.00,,,0.00,meteohub,2013-03-01 03:27:00,
2013-02-28 22:32:00,34.2,25.0,29.86,NW,315,2.0,2.0,69,0.00,,,0.00,meteohub,2013-03-01 03:32:00,
2013-02-28 22:37:00,33.3,24.6,29.87,NW,315,2.0,2.0,70,0.00,,,0.00,meteohub,2013-03-01 03:37:00,
2013-02-28 22:42:00,32.5,24.3,29.87,South,180,2.0,2.0,71,0.00,,,0.00,meteohub,2013-03-01 03:42:00,
2013-02-28 22:47:00,32.4,24.3,29.87,South,180,1.0,2.0,72,0.00,,,0.00,meteohub,2013-03-01 03:47:00,
2013-02-28 22:52:00,32.2,24.3,29.87,NNW,338,2.0,2.0,72,0.00,,,0.00,meteohub,2013-03-01 03:52:00,
2013-02-28 22:57:00,32.4,24.6,29.86,North,0,2.0,2.0,73,0.00,,,0.00,meteohub,2013-03-01 03:57:00,
2013-02-28 23:02:00,32.9,25.2,29.86,SE,135,2.0,2.0,73,0.00,,,0.00,meteohub,2013-03-01 04:02:00,
2013-02-28 23:07:00,32.9,25.2,29.86,SE,135,2.0,2.0,73,0.00,,,0.00,meteohub,2013-03-01 04:07:00,
2013-02-28 23:12:00,35.8,27.0,29.85,North,0,2.0,2.0,70,0.00,,,0.00,meteohub,2013-03-01 04:12:00,
2013-02-28 23:17:00,36.0,26.8,29.85,NNE,23,4.0,4.0,69,0.00,,,0.00,meteohub,2013-03-01 04:17:00,
2013-02-28 23:22:00,36.3,26.8,29.85,NW,315,2.0,4.0,68,0.00,,,0.00,meteohub,2013-03-01 04:22:00,
2013-02-28 23:27:00,36.9,27.3,29.86,North,0,3.0,4.0,68,0.00,,,0.00,meteohub,2013-03-01 04:27:00,
2013-02-28 23:32:00,37.4,27.1,29.85,NE,45,3.0,5.0,66,0.00,,,0.00,meteohub,2013-03-01 04:32:00,
2013-02-28 23:37:00,37.8,27.1,29.85,East,90,2.0,8.0,65,0.00,,,0.00,meteohub,2013-03-01 04:37:00,
2013-02-28 23:42:00,37.9,26.8,29.86,NW,315,6.0,8.0,64,0.00,,,0.00,meteohub,2013-03-01 04:42:00,
2013-02-28 23:47:00,38.1,27.0,29.86,North,0,1.0,8.0,64,0.00,,,0.00,meteohub,2013-03-01 04:47:00,
2013-02-28 23:52:00,38.1,26.6,29.85,North,0,3.0,6.0,63,0.00,,,0.00,meteohub,2013-03-01 04:52:00,
2013-02-28 23:57:00,37.8,26.2,29.85,South,180,2.0,6.0,63,0.00,,,0.00,meteohub,2013-03-01 04:57:00,